createdAt,value
2023-03-30T00:00:23.225Z,13.07
2023-03-30T00:02:53.955Z,13.20
2023-03-30T00:05:23.935Z,13.17
2023-03-30T00:07:51.066Z,13.10
2023-03-30T00:10:19.344Z,13.17
2023-03-30T00:12:47.992Z,13.17
2023-03-30T00:15:17.670Z,13.17
2023-03-30T00:17:44.986Z,13.24
2023-03-30T00:20:17.252Z,13.22
2023-03-30T00:22:48.582Z,13.17
2023-03-30T00:25:17.436Z,13.22
2023-03-30T00:27:44.616Z,13.24
2023-03-30T00:30:15.380Z,13.29
2023-03-30T00:33:00.706Z,13.30
2023-03-30T00:35:30.749Z,13.30
2023-03-30T00:38:04.277Z,13.21
2023-03-30T00:40:34.848Z,13.32
2023-03-30T00:43:07.803Z,13.29
2023-03-30T00:45:36.742Z,13.13
2023-03-30T00:48:15.852Z,13.33
2023-03-30T00:50:49.953Z,13.33
2023-03-30T00:53:47.713Z,13.31
2023-03-30T00:56:23.002Z,12.90
2023-03-30T00:58:50.611Z,13.15
2023-03-30T01:01:25.723Z,13.19
2023-03-30T01:03:52.990Z,13.09
2023-03-30T01:06:30.187Z,13.07
2023-03-30T01:08:59.866Z,13.07
2023-03-30T01:11:27.457Z,12.97
2023-03-30T01:14:02.065Z,13.09
2023-03-30T01:17:01.575Z,13.10
2023-03-30T01:19:49.224Z,13.06
2023-03-30T01:22:26.669Z,12.99
2023-03-30T01:24:58.641Z,13.01
2023-03-30T01:27:48.458Z,13.01
2023-03-30T01:30:37.590Z,13.07
2023-03-30T01:33:16.456Z,13.12
2023-03-30T01:35:46.290Z,13.21
2023-03-30T01:38:48.734Z,13.24
2023-03-30T01:41:37.536Z,13.36
2023-03-30T01:44:40.852Z,13.43
2023-03-30T01:47:22.606Z,13.46
2023-03-30T01:50:09.048Z,13.53
2023-03-30T01:52:54.483Z,13.49
2023-03-30T01:55:28.387Z,13.61
2023-03-30T01:58:03.217Z,13.61
2023-03-30T02:00:31.049Z,13.44
2023-03-30T02:03:06.755Z,13.45
2023-03-30T02:05:34.548Z,13.49
2023-03-30T02:08:07.528Z,13.33
2023-03-30T02:10:37.248Z,13.35
2023-03-30T02:13:05.373Z,13.26
2023-03-30T02:15:41.797Z,13.31
2023-03-30T02:18:09.713Z,13.26
2023-03-30T02:20:36.849Z,13.22
2023-03-30T02:23:09.290Z,13.16
2023-03-30T02:25:38.678Z,13.13
2023-03-30T02:28:07.801Z,13.09
2023-03-30T02:30:41.146Z,13.28
2023-03-30T02:33:13.759Z,13.37
2023-03-30T02:36:08.068Z,13.39
2023-03-30T02:38:47.577Z,13.49
2023-03-30T02:41:28.936Z,13.56
2023-03-30T02:44:14.616Z,13.58
2023-03-30T02:47:07.212Z,13.59
2023-03-30T02:50:06.143Z,13.64
2023-03-30T02:52:52.607Z,13.67
2023-03-30T02:55:22.390Z,13.71
2023-03-30T02:57:58.333Z,13.75
2023-03-30T03:00:42.062Z,13.71
2023-03-30T03:03:33.028Z,13.74
2023-03-30T03:06:02.858Z,13.64
2023-03-30T03:08:34.548Z,13.80
2023-03-30T03:11:07.478Z,13.85
2023-03-30T03:13:40.681Z,13.84
2023-03-30T03:16:12.215Z,13.79
2023-03-30T03:18:42.645Z,13.85
2023-03-30T03:21:16.180Z,13.77
2023-03-30T03:23:48.396Z,13.86
2023-03-30T03:26:15.378Z,13.86
2023-03-30T03:28:42.920Z,13.81
2023-03-30T03:31:13.432Z,13.90
2023-03-30T03:33:40.159Z,13.87
2023-03-30T03:36:11.106Z,13.86
2023-03-30T03:38:38.168Z,13.82
2023-03-30T03:41:05.161Z,13.89
2023-03-30T03:43:32.212Z,13.84
2023-03-30T03:45:59.007Z,13.86
2023-03-30T03:48:25.815Z,13.61
2023-03-30T03:50:55.038Z,13.68
2023-03-30T03:53:22.730Z,13.67
2023-03-30T03:55:49.504Z,13.73
2023-03-30T03:58:16.924Z,13.29
2023-03-30T04:00:44.311Z,13.62
2023-03-30T04:03:12.333Z,12.47
2023-03-30T04:05:39.624Z,13.13
2023-03-30T04:08:09.186Z,13.47
2023-03-30T04:10:38.303Z,13.34
2023-03-30T04:13:05.087Z,13.55
2023-03-30T04:15:34.060Z,13.62
2023-03-30T04:18:05.416Z,13.64
2023-03-30T04:20:33.243Z,13.68
2023-03-30T04:23:01.941Z,13.68
2023-03-30T04:25:29.269Z,13.67
2023-03-30T04:27:57.000Z,13.63
2023-03-30T04:30:26.749Z,13.59
2023-03-30T04:33:03.813Z,13.53
2023-03-30T04:35:36.111Z,13.24
2023-03-30T04:38:02.969Z,13.28
2023-03-30T04:40:29.797Z,13.42
2023-03-30T04:43:02.233Z,13.23
2023-03-30T04:45:30.504Z,13.46
2023-03-30T04:48:00.361Z,13.37
2023-03-30T04:50:27.108Z,13.44
2023-03-30T04:52:53.890Z,13.39
2023-03-30T04:55:20.471Z,13.28
2023-03-30T04:57:47.125Z,13.35
2023-03-30T05:00:14.508Z,13.40
2023-03-30T05:02:41.398Z,13.35
2023-03-30T05:05:08.669Z,13.28
2023-03-30T05:07:35.523Z,13.32
2023-03-30T05:10:02.109Z,13.14
2023-03-30T05:12:28.743Z,13.21
2023-03-30T05:14:55.346Z,13.20
2023-03-30T05:17:21.966Z,13.15
2023-03-30T05:19:48.701Z,13.23
2023-03-30T05:22:16.419Z,13.15
2023-03-30T05:24:43.067Z,13.14
2023-03-30T05:27:09.673Z,13.11
2023-03-30T05:29:36.400Z,13.10
2023-03-30T05:32:03.254Z,12.02
2023-03-30T05:34:30.134Z,13.17
2023-03-30T05:36:58.916Z,13.03
2023-03-30T05:39:25.592Z,13.16
2023-03-30T05:41:52.508Z,13.14
2023-03-30T05:44:21.869Z,13.11
2023-03-30T05:46:49.182Z,13.01
2023-03-30T05:49:16.068Z,13.10
2023-03-30T05:51:44.924Z,13.13
2023-03-30T05:54:14.721Z,13.13
2023-03-30T05:56:45.961Z,13.07
2023-03-30T05:59:13.128Z,13.04
2023-03-30T06:01:40.205Z,13.06
2023-03-30T06:04:08.680Z,12.99
2023-03-30T06:06:37.840Z,13.09
2023-03-30T06:09:04.902Z,12.95
2023-03-30T06:11:36.356Z,12.84
2023-03-30T06:14:03.205Z,13.06
2023-03-30T06:16:29.953Z,13.03
2023-03-30T06:18:59.352Z,13.01
2023-03-30T06:21:25.912Z,12.99
2023-03-30T06:23:52.584Z,12.91
2023-03-30T06:26:19.850Z,12.97
2023-03-30T06:28:48.946Z,12.97
2023-03-30T06:31:18.039Z,12.99
2023-03-30T06:33:45.100Z,12.98
2023-03-30T06:36:14.741Z,13.44
2023-03-30T06:38:43.663Z,13.72
2023-03-30T06:41:11.981Z,13.66
2023-03-30T06:43:39.562Z,13.67
2023-03-30T06:46:07.355Z,13.56
2023-03-30T06:48:34.470Z,13.49
2023-03-30T06:51:02.490Z,13.77
2023-03-30T06:53:30.152Z,13.95
2023-03-30T06:56:01.452Z,13.83
2023-03-30T06:58:28.487Z,13.99
2023-03-30T07:00:55.677Z,14.15
2023-03-30T07:03:30.050Z,14.22
2023-03-30T07:05:59.034Z,14.16
2023-03-30T07:08:25.723Z,14.43
2023-03-30T07:10:54.916Z,14.36
2023-03-30T07:13:23.767Z,14.56
2023-03-30T07:15:52.339Z,14.59
2023-03-30T07:18:19.331Z,14.86
2023-03-30T07:20:48.714Z,14.69
2023-03-30T07:23:19.640Z,14.49
2023-03-30T07:25:47.059Z,14.73
2023-03-30T07:28:16.356Z,14.80
2023-03-30T07:30:43.449Z,15.22
2023-03-30T07:33:10.384Z,15.43
2023-03-30T07:35:43.160Z,15.35
2023-03-30T07:38:13.207Z,15.09
2023-03-30T07:40:42.488Z,14.93
2023-03-30T07:43:09.089Z,14.74
2023-03-30T07:45:35.735Z,14.53
2023-03-30T07:48:05.119Z,14.49
2023-03-30T07:50:31.770Z,14.34
2023-03-30T07:52:58.327Z,14.46
2023-03-30T07:55:25.049Z,14.36
2023-03-30T07:57:52.548Z,14.47
2023-03-30T08:00:23.815Z,14.53
2023-03-30T08:02:53.352Z,14.63
2023-03-30T08:05:20.184Z,14.86
2023-03-30T08:07:47.040Z,14.57
2023-03-30T08:10:14.433Z,14.90
2023-03-30T08:12:43.450Z,14.74
2023-03-30T08:15:12.940Z,14.52
2023-03-30T08:17:39.606Z,14.48
2023-03-30T08:20:11.466Z,14.49
2023-03-30T08:22:38.137Z,14.47
2023-03-30T08:25:07.972Z,14.75
2023-03-30T08:27:34.622Z,15.05
2023-03-30T08:30:02.128Z,15.13
2023-03-30T08:32:28.823Z,14.54
2023-03-30T08:34:55.657Z,14.97
2023-03-30T08:37:22.683Z,14.95
2023-03-30T08:39:49.336Z,14.91
2023-03-30T08:42:46.801Z,15.29
2023-03-30T08:45:16.409Z,15.86
2023-03-30T08:47:49.043Z,16.40
2023-03-30T08:50:31.600Z,16.95
2023-03-30T08:52:58.830Z,17.38
2023-03-30T08:55:49.600Z,18.73
2023-03-30T08:58:16.097Z,17.95
2023-03-30T09:00:54.161Z,17.59
2023-03-30T09:03:53.272Z,18.08
2023-03-30T09:06:31.845Z,17.35
2023-03-30T09:09:01.495Z,16.73
2023-03-30T09:11:35.122Z,16.70
2023-03-30T09:14:12.762Z,17.59
2023-03-30T09:16:52.614Z,17.76
2023-03-30T09:19:28.512Z,17.95
2023-03-30T09:21:57.690Z,17.72
2023-03-30T09:24:27.766Z,17.59
2023-03-30T09:27:07.563Z,18.05
2023-03-30T09:29:46.864Z,17.80
2023-03-30T09:32:42.257Z,17.58
2023-03-30T09:35:19.214Z,17.85
2023-03-30T09:37:48.309Z,17.85
2023-03-30T09:40:42.041Z,17.64
2023-03-30T09:43:22.142Z,17.21
2023-03-30T09:45:48.908Z,17.41
2023-03-30T09:48:16.941Z,17.30
2023-03-30T09:50:45.925Z,17.49
2023-03-30T09:53:26.939Z,17.80
2023-03-30T09:56:21.310Z,17.55
2023-03-30T09:58:50.630Z,17.51
2023-03-30T10:01:20.606Z,17.40
2023-03-30T10:04:38.716Z,17.32
2023-03-30T10:06:58.714Z,16.74
2023-03-30T10:09:30.059Z,16.81
2023-03-30T10:11:58.468Z,16.72
2023-03-30T10:14:35.776Z,16.55
2023-03-30T10:17:04.460Z,16.58
2023-03-30T10:19:37.155Z,16.37
2023-03-30T10:22:17.436Z,16.83
2023-03-30T10:24:53.223Z,16.86
2023-03-30T10:27:25.590Z,17.00
2023-03-30T10:29:55.545Z,17.12
2023-03-30T10:32:31.693Z,17.23
2023-03-30T10:35:02.088Z,17.11
2023-03-30T10:37:38.647Z,17.06
2023-03-30T10:40:37.274Z,17.01
2023-03-30T10:43:06.903Z,17.06
2023-03-30T10:45:48.184Z,17.22
2023-03-30T10:48:57.293Z,16.82
2023-03-30T10:51:33.052Z,16.89
2023-03-30T10:54:27.264Z,16.93
2023-03-30T10:57:09.284Z,16.96
2023-03-30T10:59:38.888Z,16.90
2023-03-30T11:02:51.601Z,16.70
2023-03-30T11:05:32.589Z,16.59
2023-03-30T11:08:32.435Z,16.89
2023-03-30T11:11:00.519Z,16.96
2023-03-30T11:13:33.091Z,17.07
2023-03-30T11:16:07.993Z,16.97
2023-03-30T11:18:38.688Z,17.00
2023-03-30T11:21:08.390Z,16.93
2023-03-30T11:23:50.262Z,17.03
2023-03-30T11:26:23.725Z,16.99
2023-03-30T11:28:59.684Z,16.96
2023-03-30T11:31:35.430Z,17.03
2023-03-30T11:34:34.460Z,17.36
2023-03-30T11:37:12.830Z,17.78
2023-03-30T11:43:05.930Z,17.88
2023-03-30T11:46:25.506Z,17.73
2023-03-30T11:49:13.553Z,17.85
2023-03-30T11:52:11.103Z,18.13
2023-03-30T11:55:42.556Z,18.13
2023-03-30T11:58:17.962Z,18.07
2023-03-30T12:00:53.576Z,17.87
2023-03-30T12:03:35.633Z,17.48
2023-03-30T12:06:11.398Z,17.31
2023-03-30T12:09:02.950Z,17.07
2023-03-30T12:11:50.863Z,16.90
2023-03-30T12:14:23.407Z,16.77
2023-03-30T12:16:55.630Z,16.87
2023-03-30T12:19:30.128Z,17.07
2023-03-30T12:22:08.697Z,17.11
2023-03-30T12:25:06.207Z,17.10
2023-03-30T12:27:37.420Z,17.06
2023-03-30T12:30:27.012Z,16.96
2023-03-30T12:33:00.304Z,17.00
2023-03-30T12:35:51.036Z,17.11
2023-03-30T12:38:22.019Z,17.23
2023-03-30T12:41:20.726Z,17.34
2023-03-30T12:43:59.671Z,17.30
2023-03-30T12:47:18.406Z,17.14
2023-03-30T12:49:57.508Z,17.04
2023-03-30T12:52:42.775Z,16.93
2023-03-30T12:55:27.415Z,16.85
2023-03-30T12:57:53.931Z,16.87
2023-03-30T13:00:29.902Z,16.78
2023-03-30T13:03:18.426Z,16.80
2023-03-30T13:05:49.588Z,17.05
2023-03-30T13:08:21.871Z,17.19
2023-03-30T13:10:48.654Z,17.43
2023-03-30T13:13:23.941Z,17.69
2023-03-30T13:15:54.784Z,17.92
2023-03-30T13:18:35.910Z,18.00
2023-03-30T13:21:26.258Z,18.05
2023-03-30T13:24:22.176Z,18.02
2023-03-30T13:26:54.079Z,17.92
2023-03-30T13:29:24.026Z,17.94
2023-03-30T13:31:58.040Z,17.81
2023-03-30T13:34:58.581Z,18.04
2023-03-30T13:37:39.863Z,18.00
2023-03-30T13:40:39.501Z,17.90
2023-03-30T13:43:48.023Z,18.01
2023-03-30T13:46:26.838Z,18.02
2023-03-30T13:49:21.524Z,17.95
2023-03-30T13:51:49.244Z,17.98
2023-03-30T13:54:32.202Z,17.98
2023-03-30T13:57:11.931Z,17.80
2023-03-30T13:59:43.700Z,17.66
2023-03-30T14:02:16.933Z,17.30
2023-03-30T14:04:49.185Z,17.03
2023-03-30T14:07:18.943Z,17.17
2023-03-30T14:10:06.347Z,17.16
2023-03-30T14:12:39.843Z,17.42
2023-03-30T14:15:35.662Z,17.44
2023-03-30T14:18:04.679Z,17.53
2023-03-30T14:20:31.283Z,17.49
2023-03-30T14:23:00.487Z,17.44
2023-03-30T14:25:29.982Z,17.43
2023-03-30T14:28:01.809Z,17.51
2023-03-30T14:30:29.650Z,17.47
2023-03-30T14:33:05.899Z,17.41
2023-03-30T14:35:33.493Z,17.34
2023-03-30T14:38:13.725Z,17.38
2023-03-30T14:40:43.936Z,17.54
2023-03-30T14:43:27.577Z,17.54
2023-03-30T14:45:58.495Z,17.47
2023-03-30T14:48:38.147Z,17.42
2023-03-30T14:51:20.514Z,17.40
2023-03-30T14:53:48.088Z,17.62
2023-03-30T14:56:17.360Z,17.60
2023-03-30T14:58:47.528Z,17.46
2023-03-30T15:01:17.973Z,17.35
2023-03-30T15:03:48.340Z,17.30
2023-03-30T15:06:22.591Z,17.04
2023-03-30T15:08:50.740Z,16.70
2023-03-30T15:11:26.300Z,16.70
2023-03-30T15:13:59.076Z,16.67
2023-03-30T15:16:31.549Z,16.39
2023-03-30T15:19:11.757Z,16.76
2023-03-30T15:21:41.383Z,16.72
2023-03-30T15:24:17.233Z,16.70
2023-03-30T15:26:48.407Z,16.66
2023-03-30T15:29:18.304Z,16.53
2023-03-30T15:31:58.884Z,16.50
2023-03-30T15:34:28.012Z,16.56
2023-03-30T15:36:57.891Z,16.67
2023-03-30T15:39:33.572Z,16.72
2023-03-30T15:42:04.507Z,16.82
2023-03-30T15:44:41.275Z,16.70
2023-03-30T15:47:18.049Z,16.60
2023-03-30T15:49:50.765Z,16.48
2023-03-30T15:52:26.157Z,16.41
2023-03-30T15:54:56.220Z,16.57
2023-03-30T15:57:28.096Z,16.16
2023-03-30T16:00:01.570Z,16.44
2023-03-30T16:02:31.300Z,16.41
2023-03-30T16:05:00.630Z,16.50
2023-03-30T16:07:33.234Z,16.56
2023-03-30T16:09:59.865Z,16.60
2023-03-30T16:12:29.719Z,16.51
2023-03-30T16:14:56.795Z,16.53
2023-03-30T16:17:23.721Z,16.53
2023-03-30T16:19:50.369Z,16.53
2023-03-30T16:22:16.986Z,16.46
2023-03-30T16:24:43.682Z,16.38
2023-03-30T16:27:12.022Z,16.41
2023-03-30T16:29:38.964Z,16.44
2023-03-30T16:32:05.962Z,16.29
2023-03-30T16:34:32.758Z,16.12
2023-03-30T16:36:59.417Z,16.02
2023-03-30T16:39:28.950Z,16.03
2023-03-30T16:41:58.886Z,16.07
2023-03-30T16:44:25.670Z,16.11
2023-03-30T16:46:53.055Z,16.08
2023-03-30T16:49:22.336Z,15.96
2023-03-30T16:51:49.529Z,16.10
2023-03-30T16:54:29.484Z,16.12
2023-03-30T16:56:59.073Z,15.97
2023-03-30T16:59:30.789Z,15.29
2023-03-30T17:01:57.760Z,15.97
2023-03-30T17:04:24.429Z,15.92
2023-03-30T17:06:51.142Z,15.85
2023-03-30T17:09:19.700Z,15.82
2023-03-30T17:11:50.795Z,15.76
2023-03-30T17:14:18.120Z,15.69
2023-03-30T17:16:49.529Z,15.54
2023-03-30T17:19:16.488Z,15.66
2023-03-30T17:21:43.649Z,15.56
2023-03-30T17:24:15.143Z,15.49
2023-03-30T17:26:42.162Z,15.46
2023-03-30T17:29:09.801Z,15.25
2023-03-30T17:31:39.330Z,15.34
2023-03-30T17:34:08.478Z,15.34
2023-03-30T17:36:35.183Z,15.32
2023-03-30T17:39:05.194Z,15.30
2023-03-30T17:41:35.296Z,14.77
2023-03-30T17:44:09.072Z,15.19
2023-03-30T17:46:36.074Z,15.14
2023-03-30T17:49:08.249Z,15.10
2023-03-30T17:51:34.807Z,15.07
2023-03-30T17:54:01.397Z,15.04
2023-03-30T17:56:28.227Z,15.01
2023-03-30T17:58:54.785Z,14.99
2023-03-30T18:01:23.928Z,14.98
2023-03-30T18:03:50.863Z,14.93
2023-03-30T18:06:17.669Z,14.96
2023-03-30T18:08:46.806Z,14.85
2023-03-30T18:11:13.465Z,14.94
2023-03-30T18:13:40.031Z,14.84
2023-03-30T18:16:06.986Z,14.90
2023-03-30T18:18:33.703Z,14.88
2023-03-30T18:21:03.130Z,14.84
2023-03-30T18:23:31.677Z,14.77
2023-03-30T18:25:58.309Z,14.71
2023-03-30T18:28:26.697Z,14.65
2023-03-30T18:30:57.375Z,14.48
2023-03-30T18:33:27.514Z,14.21
2023-03-30T18:35:56.850Z,14.51
2023-03-30T18:38:25.270Z,14.00
2023-03-30T18:40:58.087Z,14.37
2023-03-30T18:43:26.655Z,14.37
2023-03-30T18:45:57.938Z,14.30
2023-03-30T18:48:27.682Z,14.39
2023-03-30T18:50:55.070Z,14.45
2023-03-30T18:53:27.071Z,14.49
2023-03-30T18:56:01.879Z,14.41
2023-03-30T18:58:30.533Z,14.58
2023-03-30T19:01:00.935Z,14.49
2023-03-30T19:03:28.937Z,13.24
2023-03-30T19:05:58.434Z,14.34
2023-03-30T19:08:26.166Z,14.22
2023-03-30T19:10:57.562Z,14.17
2023-03-30T19:13:27.426Z,14.09
2023-03-30T19:15:58.076Z,14.05
2023-03-30T19:18:27.168Z,13.97
2023-03-30T19:20:59.144Z,13.84
2023-03-30T19:23:25.829Z,13.83
2023-03-30T19:25:53.222Z,13.81
2023-03-30T19:28:19.895Z,14.15
2023-03-30T19:30:51.394Z,13.98
2023-03-30T19:33:19.861Z,13.88
2023-03-30T19:35:46.726Z,13.95
2023-03-30T19:38:15.532Z,14.32
2023-03-30T19:40:42.584Z,14.16
2023-03-30T19:43:09.815Z,13.66
2023-03-30T19:45:36.744Z,14.07
2023-03-30T19:48:04.134Z,13.98
2023-03-30T19:50:31.755Z,13.24
2023-03-30T19:52:58.989Z,13.76
2023-03-30T19:55:25.850Z,13.55
2023-03-30T19:57:52.464Z,13.46
2023-03-30T20:00:20.510Z,13.48
2023-03-30T20:02:53.158Z,13.45
2023-03-30T20:05:21.534Z,13.41
2023-03-30T20:07:48.892Z,13.47
2023-03-30T20:10:22.085Z,13.83
2023-03-30T20:12:49.858Z,13.43
2023-03-30T20:15:17.865Z,13.47
2023-03-30T20:17:47.389Z,13.37
2023-03-30T20:20:17.121Z,13.27
2023-03-30T20:22:47.067Z,13.15
2023-03-30T20:25:16.805Z,13.05
2023-03-30T20:27:43.395Z,12.88
2023-03-30T20:30:11.684Z,12.99
2023-03-30T20:32:38.472Z,11.74
2023-03-30T20:35:09.269Z,12.74
2023-03-30T20:37:35.969Z,12.99
2023-03-30T20:40:09.746Z,12.98
2023-03-30T20:42:40.000Z,12.92
2023-03-30T20:45:08.398Z,12.84
2023-03-30T20:47:35.406Z,12.52
2023-03-30T20:50:01.998Z,12.76
2023-03-30T20:52:29.333Z,12.72
2023-03-30T20:54:56.372Z,12.69
2023-03-30T20:57:24.151Z,12.64
2023-03-30T20:59:53.179Z,12.55
2023-03-30T21:02:20.505Z,12.42
2023-03-30T21:04:47.591Z,12.47
2023-03-30T21:07:16.387Z,12.35
2023-03-30T21:09:43.139Z,12.37
2023-03-30T21:12:10.464Z,12.35
2023-03-30T21:14:37.232Z,12.12
2023-03-30T21:17:04.673Z,12.15
2023-03-30T21:19:31.881Z,12.21
2023-03-30T21:22:00.398Z,12.21
2023-03-30T21:24:27.810Z,12.13
2023-03-30T21:26:54.776Z,12.00
2023-03-30T21:29:22.099Z,12.14
2023-03-30T21:31:49.537Z,12.05
2023-03-30T21:34:18.581Z,11.21
2023-03-30T21:36:45.892Z,11.99
2023-03-30T21:39:12.882Z,11.86
2023-03-30T21:41:39.753Z,11.85
2023-03-30T21:44:06.641Z,11.93
2023-03-30T21:46:33.538Z,11.80
2023-03-30T21:49:03.048Z,11.80
2023-03-30T21:51:31.677Z,11.85
2023-03-30T21:53:58.934Z,11.82
2023-03-30T21:56:30.363Z,11.79
2023-03-30T21:58:58.096Z,11.61
2023-03-30T22:01:27.267Z,11.71
2023-03-30T22:03:55.648Z,11.67
2023-03-30T22:06:27.590Z,11.60
2023-03-30T22:08:54.330Z,11.60
2023-03-30T22:11:23.807Z,11.40
2023-03-30T22:13:52.180Z,11.58
2023-03-30T22:16:28.495Z,11.38
2023-03-30T22:18:58.087Z,11.51
2023-03-30T22:21:32.270Z,11.37
2023-03-30T22:24:02.910Z,11.47
2023-03-30T22:26:29.708Z,11.29
2023-03-30T22:28:57.758Z,11.32
2023-03-30T22:31:24.556Z,11.33
2023-03-30T22:33:53.417Z,11.32
2023-03-30T22:36:25.464Z,11.24
2023-03-30T22:38:52.679Z,11.11
2023-03-30T22:41:24.800Z,11.49
2023-03-30T22:43:56.278Z,11.57
2023-03-30T22:46:24.535Z,11.51
2023-03-30T22:48:55.975Z,11.41
2023-03-30T22:51:26.549Z,11.67
2023-03-30T22:54:00.274Z,11.53
2023-03-30T22:56:28.954Z,11.63
2023-03-30T22:58:56.060Z,11.33
2023-03-30T23:01:26.071Z,11.55
2023-03-30T23:03:55.511Z,11.24
2023-03-30T23:06:24.704Z,11.46
2023-03-30T23:08:52.833Z,11.47
2023-03-30T23:11:21.705Z,11.48
2023-03-30T23:13:49.094Z,11.50
2023-03-30T23:16:16.022Z,11.40
2023-03-30T23:18:42.640Z,11.45
2023-03-30T23:21:11.264Z,11.31
2023-03-30T23:23:39.014Z,11.20
2023-03-30T23:26:09.980Z,11.30
2023-03-30T23:28:39.081Z,11.38
2023-03-30T23:31:16.694Z,11.39
2023-03-30T23:33:43.728Z,11.38
2023-03-30T23:36:16.995Z,11.21
2023-03-30T23:38:46.635Z,11.40
2023-03-30T23:41:15.218Z,11.42
2023-03-30T23:43:41.936Z,11.43
2023-03-30T23:46:09.900Z,11.46
2023-03-30T23:48:39.231Z,11.31
2023-03-30T23:51:08.750Z,11.53
2023-03-30T23:53:40.209Z,11.56
2023-03-30T23:56:17.731Z,11.52
2023-03-30T23:58:44.915Z,11.55
